sensor_id;sensor_type;location;lat;lon;timestamp;temperature;humidity
20319;DHT22;10317;47.254;11.314;2023-06-14T00:01:01;13.30;71.60
20319;DHT22;10317;47.254;11.314;2023-06-14T00:03:28;13.30;71.20
20319;DHT22;10317;47.254;11.314;2023-06-14T00:05:54;13.20;72.10
20319;DHT22;10317;47.254;11.314;2023-06-14T00:08:19;13.30;73.00
20319;DHT22;10317;47.254;11.314;2023-06-14T00:10:46;13.20;72.90
20319;DHT22;10317;47.254;11.314;2023-06-14T00:13:12;13.20;72.10
20319;DHT22;10317;47.254;11.314;2023-06-14T00:15:37;13.20;72.70
20319;DHT22;10317;47.254;11.314;2023-06-14T00:18:03;13.10;72.90
20319;DHT22;10317;47.254;11.314;2023-06-14T00:20:30;13.10;73.10
20319;DHT22;10317;47.254;11.314;2023-06-14T00:22:58;13.00;74.10
20319;DHT22;10317;47.254;11.314;2023-06-14T00:25:23;13.00;75.10
20319;DHT22;10317;47.254;11.314;2023-06-14T00:27:50;13.00;74.80
20319;DHT22;10317;47.254;11.314;2023-06-14T00:30:16;13.00;75.00
20319;DHT22;10317;47.254;11.314;2023-06-14T00:32:41;12.90;74.90
20319;DHT22;10317;47.254;11.314;2023-06-14T00:35:08;12.90;74.80
20319;DHT22;10317;47.254;11.314;2023-06-14T00:37:34;12.80;75.30
20319;DHT22;10317;47.254;11.314;2023-06-14T00:40:00;12.80;76.00
20319;DHT22;10317;47.254;11.314;2023-06-14T00:42:26;12.80;75.70
20319;DHT22;10317;47.254;11.314;2023-06-14T00:44:52;12.70;76.00
20319;DHT22;10317;47.254;11.314;2023-06-14T00:47:17;12.70;75.20
20319;DHT22;10317;47.254;11.314;2023-06-14T00:49:44;12.70;75.90
20319;DHT22;10317;47.254;11.314;2023-06-14T00:52:10;12.70;77.10
20319;DHT22;10317;47.254;11.314;2023-06-14T00:54:38;12.70;77.00
20319;DHT22;10317;47.254;11.314;2023-06-14T00:57:03;12.60;76.70
20319;DHT22;10317;47.254;11.314;2023-06-14T00:59:29;12.70;76.90
20319;DHT22;10317;47.254;11.314;2023-06-14T01:01:55;12.60;77.10
20319;DHT22;10317;47.254;11.314;2023-06-14T01:04:20;12.60;77.20
20319;DHT22;10317;47.254;11.314;2023-06-14T01:09:17;12.60;76.60
20319;DHT22;10317;47.254;11.314;2023-06-14T01:14:18;12.50;78.00
20319;DHT22;10317;47.254;11.314;2023-06-14T01:16:45;12.60;79.20
20319;DHT22;10317;47.254;11.314;2023-06-14T01:19:11;12.50;78.60
20319;DHT22;10317;47.254;11.314;2023-06-14T01:21:47;12.50;77.50
20319;DHT22;10317;47.254;11.314;2023-06-14T01:24:16;12.40;78.30
20319;DHT22;10317;47.254;11.314;2023-06-14T01:26:44;12.40;80.10
20319;DHT22;10317;47.254;11.314;2023-06-14T01:29:10;12.30;79.00
20319;DHT22;10317;47.254;11.314;2023-06-14T01:31:36;12.30;78.50
20319;DHT22;10317;47.254;11.314;2023-06-14T01:34:06;12.20;80.00
20319;DHT22;10317;47.254;11.314;2023-06-14T01:36:32;12.20;79.80
20319;DHT22;10317;47.254;11.314;2023-06-14T01:38:58;12.10;79.90
20319;DHT22;10317;47.254;11.314;2023-06-14T01:41:24;12.10;79.60
20319;DHT22;10317;47.254;11.314;2023-06-14T01:43:50;12.00;79.10
20319;DHT22;10317;47.254;11.314;2023-06-14T01:46:17;12.00;79.40
20319;DHT22;10317;47.254;11.314;2023-06-14T01:48:43;12.00;79.10
20319;DHT22;10317;47.254;11.314;2023-06-14T01:51:08;11.90;80.10
20319;DHT22;10317;47.254;11.314;2023-06-14T01:53:34;11.90;81.60
20319;DHT22;10317;47.254;11.314;2023-06-14T01:56:00;11.90;81.80
20319;DHT22;10317;47.254;11.314;2023-06-14T01:58:26;11.90;81.70
20319;DHT22;10317;47.254;11.314;2023-06-14T02:00:52;11.80;82.10
20319;DHT22;10317;47.254;11.314;2023-06-14T02:03:20;11.80;83.30
20319;DHT22;10317;47.254;11.314;2023-06-14T02:05:46;11.80;82.80
20319;DHT22;10317;47.254;11.314;2023-06-14T02:08:12;11.70;83.40
20319;DHT22;10317;47.254;11.314;2023-06-14T02:10:38;11.70;83.50
20319;DHT22;10317;47.254;11.314;2023-06-14T02:13:03;11.70;82.90
20319;DHT22;10317;47.254;11.314;2023-06-14T02:15:29;11.70;82.90
20319;DHT22;10317;47.254;11.314;2023-06-14T02:18:02;11.70;84.50
20319;DHT22;10317;47.254;11.314;2023-06-14T02:20:28;11.60;85.50
20319;DHT22;10317;47.254;11.314;2023-06-14T02:22:54;11.60;84.60
20319;DHT22;10317;47.254;11.314;2023-06-14T02:25:19;11.60;84.10
20319;DHT22;10317;47.254;11.314;2023-06-14T02:27:45;11.50;84.50
20319;DHT22;10317;47.254;11.314;2023-06-14T02:30:11;11.40;85.40
20319;DHT22;10317;47.254;11.314;2023-06-14T02:32:36;11.40;84.50
20319;DHT22;10317;47.254;11.314;2023-06-14T02:35:02;11.40;85.10
20319;DHT22;10317;47.254;11.314;2023-06-14T02:37:28;11.30;85.90
20319;DHT22;10317;47.254;11.314;2023-06-14T02:39:53;11.30;86.20
20319;DHT22;10317;47.254;11.314;2023-06-14T02:42:19;11.30;86.70
20319;DHT22;10317;47.254;11.314;2023-06-14T02:44:45;11.30;86.90
20319;DHT22;10317;47.254;11.314;2023-06-14T02:47:12;11.30;89.00
20319;DHT22;10317;47.254;11.314;2023-06-14T02:49:37;11.30;89.70
20319;DHT22;10317;47.254;11.314;2023-06-14T02:52:03;11.30;90.10
20319;DHT22;10317;47.254;11.314;2023-06-14T02:54:28;11.20;90.00
20319;DHT22;10317;47.254;11.314;2023-06-14T02:56:54;11.20;90.80
20319;DHT22;10317;47.254;11.314;2023-06-14T02:59:19;11.20;91.10
20319;DHT22;10317;47.254;11.314;2023-06-14T03:01:46;11.20;91.00
20319;DHT22;10317;47.254;11.314;2023-06-14T03:04:12;11.10;90.80
20319;DHT22;10317;47.254;11.314;2023-06-14T03:06:37;11.10;91.10
20319;DHT22;10317;47.254;11.314;2023-06-14T03:09:04;11.10;91.00
20319;DHT22;10317;47.254;11.314;2023-06-14T03:11:30;11.10;91.00
20319;DHT22;10317;47.254;11.314;2023-06-14T03:13:56;11.00;91.20
20319;DHT22;10317;47.254;11.314;2023-06-14T03:16:22;11.00;91.50
20319;DHT22;10317;47.254;11.314;2023-06-14T03:18:52;11.00;92.00
20319;DHT22;10317;47.254;11.314;2023-06-14T03:21:18;11.00;92.70
20319;DHT22;10317;47.254;11.314;2023-06-14T03:23:44;11.00;93.30
20319;DHT22;10317;47.254;11.314;2023-06-14T03:26:10;10.90;93.30
20319;DHT22;10317;47.254;11.314;2023-06-14T03:28:39;10.90;93.50
20319;DHT22;10317;47.254;11.314;2023-06-14T03:31:05;10.90;93.90
20319;DHT22;10317;47.254;11.314;2023-06-14T03:33:31;10.90;94.00
20319;DHT22;10317;47.254;11.314;2023-06-14T03:35:56;10.90;93.90
20319;DHT22;10317;47.254;11.314;2023-06-14T03:38:22;10.80;93.90
20319;DHT22;10317;47.254;11.314;2023-06-14T03:40:48;10.80;94.30
20319;DHT22;10317;47.254;11.314;2023-06-14T03:43:14;10.90;94.50
20319;DHT22;10317;47.254;11.314;2023-06-14T03:45:39;10.90;94.50
20319;DHT22;10317;47.254;11.314;2023-06-14T03:48:05;10.90;94.60
20319;DHT22;10317;47.254;11.314;2023-06-14T03:50:32;10.90;94.80
20319;DHT22;10317;47.254;11.314;2023-06-14T03:52:57;11.00;95.60
20319;DHT22;10317;47.254;11.314;2023-06-14T03:55:23;11.00;95.70
20319;DHT22;10317;47.254;11.314;2023-06-14T03:57:51;11.10;95.70
20319;DHT22;10317;47.254;11.314;2023-06-14T04:00:16;11.10;96.00
20319;DHT22;10317;47.254;11.314;2023-06-14T04:02:43;11.10;96.10
20319;DHT22;10317;47.254;11.314;2023-06-14T04:05:09;11.10;96.30
20319;DHT22;10317;47.254;11.314;2023-06-14T04:07:35;11.20;96.90
20319;DHT22;10317;47.254;11.314;2023-06-14T04:10:13;11.30;96.90
20319;DHT22;10317;47.254;11.314;2023-06-14T04:12:39;11.30;97.20
20319;DHT22;10317;47.254;11.314;2023-06-14T04:15:05;11.40;97.10
20319;DHT22;10317;47.254;11.314;2023-06-14T04:17:34;11.40;97.40
20319;DHT22;10317;47.254;11.314;2023-06-14T04:20:00;11.50;97.60
20319;DHT22;10317;47.254;11.314;2023-06-14T04:22:26;11.50;97.60
20319;DHT22;10317;47.254;11.314;2023-06-14T04:24:56;11.60;97.80
20319;DHT22;10317;47.254;11.314;2023-06-14T04:27:22;11.60;98.00
20319;DHT22;10317;47.254;11.314;2023-06-14T04:29:51;11.70;98.30
20319;DHT22;10317;47.254;11.314;2023-06-14T04:32:25;11.70;98.10
20319;DHT22;10317;47.254;11.314;2023-06-14T04:34:54;11.80;97.70
20319;DHT22;10317;47.254;11.314;2023-06-14T04:37:23;11.80;97.90
20319;DHT22;10317;47.254;11.314;2023-06-14T04:39:49;11.90;98.30
20319;DHT22;10317;47.254;11.314;2023-06-14T04:42:15;11.90;97.90
20319;DHT22;10317;47.254;11.314;2023-06-14T04:44:41;11.90;97.90
20319;DHT22;10317;47.254;11.314;2023-06-14T04:47:07;12.00;97.90
20319;DHT22;10317;47.254;11.314;2023-06-14T04:49:32;12.00;98.00
20319;DHT22;10317;47.254;11.314;2023-06-14T04:51:59;12.00;98.90
20319;DHT22;10317;47.254;11.314;2023-06-14T04:54:27;12.00;98.90
20319;DHT22;10317;47.254;11.314;2023-06-14T04:56:53;12.10;98.50
20319;DHT22;10317;47.254;11.314;2023-06-14T04:59:20;12.20;98.80
20319;DHT22;10317;47.254;11.314;2023-06-14T05:01:48;12.20;98.80
20319;DHT22;10317;47.254;11.314;2023-06-14T05:04:17;12.30;98.90
20319;DHT22;10317;47.254;11.314;2023-06-14T05:06:43;12.40;98.10
20319;DHT22;10317;47.254;11.314;2023-06-14T05:09:13;12.50;98.00
20319;DHT22;10317;47.254;11.314;2023-06-14T05:11:39;12.50;97.90
20319;DHT22;10317;47.254;11.314;2023-06-14T05:14:05;12.70;97.90
20319;DHT22;10317;47.254;11.314;2023-06-14T05:16:31;12.90;98.20
20319;DHT22;10317;47.254;11.314;2023-06-14T05:18:57;13.00;97.30
20319;DHT22;10317;47.254;11.314;2023-06-14T05:21:23;13.20;96.50
20319;DHT22;10317;47.254;11.314;2023-06-14T05:23:48;13.60;95.30
20319;DHT22;10317;47.254;11.314;2023-06-14T05:26:16;14.10;93.50
20319;DHT22;10317;47.254;11.314;2023-06-14T05:28:41;14.90;90.30
20319;DHT22;10317;47.254;11.314;2023-06-14T05:31:07;15.50;89.70
20319;DHT22;10317;47.254;11.314;2023-06-14T05:33:32;16.20;85.90
20319;DHT22;10317;47.254;11.314;2023-06-14T05:35:58;16.50;80.80
20319;DHT22;10317;47.254;11.314;2023-06-14T05:38:23;16.50;78.40
20319;DHT22;10317;47.254;11.314;2023-06-14T05:40:49;16.60;77.40
20319;DHT22;10317;47.254;11.314;2023-06-14T05:43:14;16.40;76.20
20319;DHT22;10317;47.254;11.314;2023-06-14T05:45:40;16.10;79.20
20319;DHT22;10317;47.254;11.314;2023-06-14T05:48:06;15.90;82.60
20319;DHT22;10317;47.254;11.314;2023-06-14T05:50:31;15.70;84.00
20319;DHT22;10317;47.254;11.314;2023-06-14T05:52:57;15.80;86.60
20319;DHT22;10317;47.254;11.314;2023-06-14T05:55:22;16.00;84.20
20319;DHT22;10317;47.254;11.314;2023-06-14T05:57:48;16.00;82.50
20319;DHT22;10317;47.254;11.314;2023-06-14T06:00:14;16.30;81.10
20319;DHT22;10317;47.254;11.314;2023-06-14T06:02:41;16.60;79.80
20319;DHT22;10317;47.254;11.314;2023-06-14T06:05:08;16.90;79.00
20319;DHT22;10317;47.254;11.314;2023-06-14T06:07:34;17.20;77.50
20319;DHT22;10317;47.254;11.314;2023-06-14T06:10:00;17.00;74.90
20319;DHT22;10317;47.254;11.314;2023-06-14T06:12:25;17.40;76.20
20319;DHT22;10317;47.254;11.314;2023-06-14T06:14:51;18.00;74.40
20319;DHT22;10317;47.254;11.314;2023-06-14T06:17:17;18.50;70.90
20319;DHT22;10317;47.254;11.314;2023-06-14T06:19:42;19.10;67.40
20319;DHT22;10317;47.254;11.314;2023-06-14T06:22:08;19.90;65.40
20319;DHT22;10317;47.254;11.314;2023-06-14T06:24:33;20.60;64.30
20319;DHT22;10317;47.254;11.314;2023-06-14T06:26:59;21.20;61.90
20319;DHT22;10317;47.254;11.314;2023-06-14T06:29:25;21.30;57.60
20319;DHT22;10317;47.254;11.314;2023-06-14T06:31:51;21.50;58.00
20319;DHT22;10317;47.254;11.314;2023-06-14T06:34:16;21.90;58.60
20319;DHT22;10317;47.254;11.314;2023-06-14T06:36:42;22.10;55.80
20319;DHT22;10317;47.254;11.314;2023-06-14T06:39:07;22.40;55.60
20319;DHT22;10317;47.254;11.314;2023-06-14T06:41:38;22.50;52.10
20319;DHT22;10317;47.254;11.314;2023-06-14T06:44:05;22.80;52.50
20319;DHT22;10317;47.254;11.314;2023-06-14T06:46:31;23.10;51.40
20319;DHT22;10317;47.254;11.314;2023-06-14T06:48:57;23.40;49.40
20319;DHT22;10317;47.254;11.314;2023-06-14T06:51:23;23.60;49.50
20319;DHT22;10317;47.254;11.314;2023-06-14T06:53:52;23.80;48.70
20319;DHT22;10317;47.254;11.314;2023-06-14T06:56:18;24.10;49.70
20319;DHT22;10317;47.254;11.314;2023-06-14T06:58:43;24.30;47.40
20319;DHT22;10317;47.254;11.314;2023-06-14T07:01:09;24.10;47.50
20319;DHT22;10317;47.254;11.314;2023-06-14T07:03:34;24.40;47.40
20319;DHT22;10317;47.254;11.314;2023-06-14T07:06:00;24.80;46.70
20319;DHT22;10317;47.254;11.314;2023-06-14T07:08:26;24.60;45.90
20319;DHT22;10317;47.254;11.314;2023-06-14T07:10:52;24.50;46.30
20319;DHT22;10317;47.254;11.314;2023-06-14T07:13:17;24.90;46.70
20319;DHT22;10317;47.254;11.314;2023-06-14T07:15:43;25.30;45.50
20319;DHT22;10317;47.254;11.314;2023-06-14T07:18:09;25.00;45.50
20319;DHT22;10317;47.254;11.314;2023-06-14T07:20:35;25.30;45.20
20319;DHT22;10317;47.254;11.314;2023-06-14T07:23:00;25.30;44.20
20319;DHT22;10317;47.254;11.314;2023-06-14T07:25:26;25.40;44.20
20319;DHT22;10317;47.254;11.314;2023-06-14T07:27:51;25.20;43.80
20319;DHT22;10317;47.254;11.314;2023-06-14T07:30:17;25.30;43.70
20319;DHT22;10317;47.254;11.314;2023-06-14T07:32:42;25.80;43.90
20319;DHT22;10317;47.254;11.314;2023-06-14T07:35:08;25.50;42.40
20319;DHT22;10317;47.254;11.314;2023-06-14T07:37:34;25.00;43.10
20319;DHT22;10317;47.254;11.314;2023-06-14T07:40:00;25.20;43.20
20319;DHT22;10317;47.254;11.314;2023-06-14T07:42:25;25.20;43.30
20319;DHT22;10317;47.254;11.314;2023-06-14T07:44:51;25.30;41.90
20319;DHT22;10317;47.254;11.314;2023-06-14T07:47:17;25.80;44.40
20319;DHT22;10317;47.254;11.314;2023-06-14T07:49:43;26.40;42.30
20319;DHT22;10317;47.254;11.314;2023-06-14T07:52:08;26.60;41.00
20319;DHT22;10317;47.254;11.314;2023-06-14T07:54:34;26.50;41.00
20319;DHT22;10317;47.254;11.314;2023-06-14T07:57:00;27.00;40.20
20319;DHT22;10317;47.254;11.314;2023-06-14T07:59:26;26.90;39.60
20319;DHT22;10317;47.254;11.314;2023-06-14T08:01:51;27.40;40.60
20319;DHT22;10317;47.254;11.314;2023-06-14T08:04:17;27.80;41.70
20319;DHT22;10317;47.254;11.314;2023-06-14T08:06:42;27.70;39.80
20319;DHT22;10317;47.254;11.314;2023-06-14T08:09:10;27.50;38.00
20319;DHT22;10317;47.254;11.314;2023-06-14T08:11:36;27.40;38.20
20319;DHT22;10317;47.254;11.314;2023-06-14T08:14:02;27.40;38.20
20319;DHT22;10317;47.254;11.314;2023-06-14T08:16:27;27.70;38.50
20319;DHT22;10317;47.254;11.314;2023-06-14T08:18:53;27.40;40.10
20319;DHT22;10317;47.254;11.314;2023-06-14T08:21:18;27.70;42.00
20319;DHT22;10317;47.254;11.314;2023-06-14T08:23:44;27.50;37.40
20319;DHT22;10317;47.254;11.314;2023-06-14T08:26:10;27.20;36.60
20319;DHT22;10317;47.254;11.314;2023-06-14T08:28:36;27.30;37.60
20319;DHT22;10317;47.254;11.314;2023-06-14T08:31:01;27.10;36.10
20319;DHT22;10317;47.254;11.314;2023-06-14T08:33:27;26.90;37.30
20319;DHT22;10317;47.254;11.314;2023-06-14T08:35:52;27.00;38.90
20319;DHT22;10317;47.254;11.314;2023-06-14T08:38:18;26.70;35.70
20319;DHT22;10317;47.254;11.314;2023-06-14T08:40:44;26.60;37.70
20319;DHT22;10317;47.254;11.314;2023-06-14T08:43:10;26.70;37.50
20319;DHT22;10317;47.254;11.314;2023-06-14T08:45:36;26.50;36.40
20319;DHT22;10317;47.254;11.314;2023-06-14T08:48:01;26.50;36.30
20319;DHT22;10317;47.254;11.314;2023-06-14T08:50:27;26.60;36.60
20319;DHT22;10317;47.254;11.314;2023-06-14T08:52:59;26.50;36.60
20319;DHT22;10317;47.254;11.314;2023-06-14T08:55:28;26.50;36.30
20319;DHT22;10317;47.254;11.314;2023-06-14T08:57:54;26.60;37.10
20319;DHT22;10317;47.254;11.314;2023-06-14T09:00:23;26.70;38.30
20319;DHT22;10317;47.254;11.314;2023-06-14T09:02:49;26.60;38.10
20319;DHT22;10317;47.254;11.314;2023-06-14T09:05:22;26.90;40.30
20319;DHT22;10317;47.254;11.314;2023-06-14T09:07:48;26.70;37.40
20319;DHT22;10317;47.254;11.314;2023-06-14T09:10:15;26.70;37.40
20319;DHT22;10317;47.254;11.314;2023-06-14T09:12:41;26.40;38.60
20319;DHT22;10317;47.254;11.314;2023-06-14T09:15:07;26.30;37.80
20319;DHT22;10317;47.254;11.314;2023-06-14T09:17:37;25.90;38.90
20319;DHT22;10317;47.254;11.314;2023-06-14T09:20:03;25.90;38.30
20319;DHT22;10317;47.254;11.314;2023-06-14T09:22:34;26.00;38.20
20319;DHT22;10317;47.254;11.314;2023-06-14T09:24:59;25.70;38.30
20319;DHT22;10317;47.254;11.314;2023-06-14T09:27:25;25.60;37.30
20319;DHT22;10317;47.254;11.314;2023-06-14T09:29:52;25.70;39.50
20319;DHT22;10317;47.254;11.314;2023-06-14T09:32:17;25.70;38.30
20319;DHT22;10317;47.254;11.314;2023-06-14T09:34:43;25.80;38.80
20319;DHT22;10317;47.254;11.314;2023-06-14T09:37:09;25.80;36.20
20319;DHT22;10317;47.254;11.314;2023-06-14T09:39:36;25.90;36.40
20319;DHT22;10317;47.254;11.314;2023-06-14T09:42:17;25.90;38.50
20319;DHT22;10317;47.254;11.314;2023-06-14T09:44:48;25.90;38.00
20319;DHT22;10317;47.254;11.314;2023-06-14T09:47:16;26.10;37.00
20319;DHT22;10317;47.254;11.314;2023-06-14T09:49:42;26.00;36.90
20319;DHT22;10317;47.254;11.314;2023-06-14T09:52:41;26.20;35.60
20319;DHT22;10317;47.254;11.314;2023-06-14T09:54:59;26.40;37.10
20319;DHT22;10317;47.254;11.314;2023-06-14T09:57:29;26.30;35.60
20319;DHT22;10317;47.254;11.314;2023-06-14T09:59:58;26.30;37.00
20319;DHT22;10317;47.254;11.314;2023-06-14T10:02:31;26.10;38.20
20319;DHT22;10317;47.254;11.314;2023-06-14T10:05:07;26.10;37.40
20319;DHT22;10317;47.254;11.314;2023-06-14T10:07:56;26.10;35.40
20319;DHT22;10317;47.254;11.314;2023-06-14T10:10:20;26.30;37.50
20319;DHT22;10317;47.254;11.314;2023-06-14T10:12:45;26.40;37.50
20319;DHT22;10317;47.254;11.314;2023-06-14T10:15:14;26.40;38.50
20319;DHT22;10317;47.254;11.314;2023-06-14T10:17:43;26.60;37.70
20319;DHT22;10317;47.254;11.314;2023-06-14T10:22:51;26.20;36.50
20319;DHT22;10317;47.254;11.314;2023-06-14T10:25:32;26.40;36.00
20319;DHT22;10317;47.254;11.314;2023-06-14T10:28:14;26.70;35.50
20319;DHT22;10317;47.254;11.314;2023-06-14T10:33:49;26.60;34.80
20319;DHT22;10317;47.254;11.314;2023-06-14T10:36:30;26.60;35.90
20319;DHT22;10317;47.254;11.314;2023-06-14T10:39:00;26.70;35.80
20319;DHT22;10317;47.254;11.314;2023-06-14T10:41:26;27.00;36.90
20319;DHT22;10317;47.254;11.314;2023-06-14T10:44:10;26.90;35.50
20319;DHT22;10317;47.254;11.314;2023-06-14T10:46:35;27.20;36.10
20319;DHT22;10317;47.254;11.314;2023-06-14T10:49:01;27.00;38.50
20319;DHT22;10317;47.254;11.314;2023-06-14T10:51:29;27.10;39.30
20319;DHT22;10317;47.254;11.314;2023-06-14T10:53:56;27.20;38.90
20319;DHT22;10317;47.254;11.314;2023-06-14T10:56:27;27.10;37.90
20319;DHT22;10317;47.254;11.314;2023-06-14T10:58:54;27.30;38.50
20319;DHT22;10317;47.254;11.314;2023-06-14T11:01:24;27.30;36.20
20319;DHT22;10317;47.254;11.314;2023-06-14T11:03:54;27.40;36.50
20319;DHT22;10317;47.254;11.314;2023-06-14T11:06:21;27.50;36.90
20319;DHT22;10317;47.254;11.314;2023-06-14T11:11:13;27.60;35.10
20319;DHT22;10317;47.254;11.314;2023-06-14T11:13:41;27.60;35.60
20319;DHT22;10317;47.254;11.314;2023-06-14T11:16:13;27.60;36.80
20319;DHT22;10317;47.254;11.314;2023-06-14T11:18:40;27.60;35.60
20319;DHT22;10317;47.254;11.314;2023-06-14T11:21:05;27.70;35.90
20319;DHT22;10317;47.254;11.314;2023-06-14T11:23:31;27.70;38.50
20319;DHT22;10317;47.254;11.314;2023-06-14T11:25:57;27.80;36.40
20319;DHT22;10317;47.254;11.314;2023-06-14T11:28:22;27.80;37.10
20319;DHT22;10317;47.254;11.314;2023-06-14T11:30:49;27.70;35.40
20319;DHT22;10317;47.254;11.314;2023-06-14T11:33:24;27.80;37.70
20319;DHT22;10317;47.254;11.314;2023-06-14T11:35:50;27.70;37.70
20319;DHT22;10317;47.254;11.314;2023-06-14T11:38:16;27.90;39.20
20319;DHT22;10317;47.254;11.314;2023-06-14T11:40:42;27.60;36.90
20319;DHT22;10317;47.254;11.314;2023-06-14T11:43:07;27.70;37.00
20319;DHT22;10317;47.254;11.314;2023-06-14T11:45:33;27.60;36.70
20319;DHT22;10317;47.254;11.314;2023-06-14T11:47:58;27.50;38.10
20319;DHT22;10317;47.254;11.314;2023-06-14T11:50:24;27.50;36.50
20319;DHT22;10317;47.254;11.314;2023-06-14T11:52:57;27.50;39.50
20319;DHT22;10317;47.254;11.314;2023-06-14T11:55:25;27.80;36.70
20319;DHT22;10317;47.254;11.314;2023-06-14T11:57:50;28.00;35.70
20319;DHT22;10317;47.254;11.314;2023-06-14T12:00:16;28.10;35.80
20319;DHT22;10317;47.254;11.314;2023-06-14T12:02:42;28.20;36.70
20319;DHT22;10317;47.254;11.314;2023-06-14T12:05:08;28.40;38.90
20319;DHT22;10317;47.254;11.314;2023-06-14T12:07:37;28.60;37.00
20319;DHT22;10317;47.254;11.314;2023-06-14T12:12:34;28.50;37.70
20319;DHT22;10317;47.254;11.314;2023-06-14T12:15:02;28.50;35.80
20319;DHT22;10317;47.254;11.314;2023-06-14T12:17:31;28.50;34.90
20319;DHT22;10317;47.254;11.314;2023-06-14T12:20:05;28.60;36.20
20319;DHT22;10317;47.254;11.314;2023-06-14T12:22:37;28.80;36.00
20319;DHT22;10317;47.254;11.314;2023-06-14T12:25:04;28.50;36.00
20319;DHT22;10317;47.254;11.314;2023-06-14T12:27:29;28.70;36.60
20319;DHT22;10317;47.254;11.314;2023-06-14T12:29:58;28.80;35.70
20319;DHT22;10317;47.254;11.314;2023-06-14T12:32:24;28.90;35.70
20319;DHT22;10317;47.254;11.314;2023-06-14T12:34:49;28.90;35.30
20319;DHT22;10317;47.254;11.314;2023-06-14T12:37:15;28.80;34.20
20319;DHT22;10317;47.254;11.314;2023-06-14T12:39:41;28.40;34.70
20319;DHT22;10317;47.254;11.314;2023-06-14T12:42:06;28.50;34.90
20319;DHT22;10317;47.254;11.314;2023-06-14T12:44:32;28.60;34.60
20319;DHT22;10317;47.254;11.314;2023-06-14T12:47:01;28.90;35.30
20319;DHT22;10317;47.254;11.314;2023-06-14T12:49:26;29.20;35.50
20319;DHT22;10317;47.254;11.314;2023-06-14T12:51:52;29.30;38.20
20319;DHT22;10317;47.254;11.314;2023-06-14T12:54:17;29.00;35.70
20319;DHT22;10317;47.254;11.314;2023-06-14T12:56:43;29.00;36.30
20319;DHT22;10317;47.254;11.314;2023-06-14T12:59:10;29.10;34.90
20319;DHT22;10317;47.254;11.314;2023-06-14T13:01:37;28.90;35.80
20319;DHT22;10317;47.254;11.314;2023-06-14T13:04:03;28.90;36.30
20319;DHT22;10317;47.254;11.314;2023-06-14T13:06:28;29.00;35.80
20319;DHT22;10317;47.254;11.314;2023-06-14T13:08:56;28.90;37.40
20319;DHT22;10317;47.254;11.314;2023-06-14T13:11:23;28.80;35.10
20319;DHT22;10317;47.254;11.314;2023-06-14T13:13:48;28.80;36.40
20319;DHT22;10317;47.254;11.314;2023-06-14T13:16:14;28.50;35.10
20319;DHT22;10317;47.254;11.314;2023-06-14T13:18:39;28.30;34.20
20319;DHT22;10317;47.254;11.314;2023-06-14T13:21:05;28.20;34.70
20319;DHT22;10317;47.254;11.314;2023-06-14T13:23:30;28.20;36.00
20319;DHT22;10317;47.254;11.314;2023-06-14T13:25:56;27.80;34.60
20319;DHT22;10317;47.254;11.314;2023-06-14T13:28:22;27.60;34.30
20319;DHT22;10317;47.254;11.314;2023-06-14T13:30:47;27.30;36.80
20319;DHT22;10317;47.254;11.314;2023-06-14T13:33:13;27.10;40.30
20319;DHT22;10317;47.254;11.314;2023-06-14T13:35:38;27.10;36.10
20319;DHT22;10317;47.254;11.314;2023-06-14T13:38:04;27.20;38.50
20319;DHT22;10317;47.254;11.314;2023-06-14T13:40:29;27.40;37.50
20319;DHT22;10317;47.254;11.314;2023-06-14T13:42:55;27.60;36.80
20319;DHT22;10317;47.254;11.314;2023-06-14T13:45:21;27.60;38.00
20319;DHT22;10317;47.254;11.314;2023-06-14T13:47:46;27.90;38.70
20319;DHT22;10317;47.254;11.314;2023-06-14T13:50:13;28.00;37.20
20319;DHT22;10317;47.254;11.314;2023-06-14T13:52:39;28.20;36.90
20319;DHT22;10317;47.254;11.314;2023-06-14T13:55:16;28.00;34.90
20319;DHT22;10317;47.254;11.314;2023-06-14T13:57:42;28.10;35.40
20319;DHT22;10317;47.254;11.314;2023-06-14T14:00:07;28.20;35.70
20319;DHT22;10317;47.254;11.314;2023-06-14T14:02:34;28.10;35.60
20319;DHT22;10317;47.254;11.314;2023-06-14T14:04:59;28.20;35.70
20319;DHT22;10317;47.254;11.314;2023-06-14T14:07:26;28.30;35.00
20319;DHT22;10317;47.254;11.314;2023-06-14T14:09:51;28.20;37.20
20319;DHT22;10317;47.254;11.314;2023-06-14T14:12:18;28.20;35.60
20319;DHT22;10317;47.254;11.314;2023-06-14T14:14:44;28.30;35.30
20319;DHT22;10317;47.254;11.314;2023-06-14T14:17:09;28.20;35.40
20319;DHT22;10317;47.254;11.314;2023-06-14T14:19:35;28.20;38.80
20319;DHT22;10317;47.254;11.314;2023-06-14T14:22:01;27.70;37.70
20319;DHT22;10317;47.254;11.314;2023-06-14T14:24:27;27.70;39.50
20319;DHT22;10317;47.254;11.314;2023-06-14T14:26:52;27.80;37.00
20319;DHT22;10317;47.254;11.314;2023-06-14T14:29:19;28.00;38.70
20319;DHT22;10317;47.254;11.314;2023-06-14T14:31:44;28.00;38.60
20319;DHT22;10317;47.254;11.314;2023-06-14T14:34:10;27.90;38.10
20319;DHT22;10317;47.254;11.314;2023-06-14T14:36:35;28.20;36.70
20319;DHT22;10317;47.254;11.314;2023-06-14T14:39:03;28.10;36.90
20319;DHT22;10317;47.254;11.314;2023-06-14T14:41:29;28.10;36.90
20319;DHT22;10317;47.254;11.314;2023-06-14T14:43:54;27.90;36.60
20319;DHT22;10317;47.254;11.314;2023-06-14T14:46:20;27.80;37.00
20319;DHT22;10317;47.254;11.314;2023-06-14T14:48:46;27.90;37.50
20319;DHT22;10317;47.254;11.314;2023-06-14T14:51:11;27.80;37.80
20319;DHT22;10317;47.254;11.314;2023-06-14T14:53:37;27.50;37.50
20319;DHT22;10317;47.254;11.314;2023-06-14T14:56:02;27.60;37.80
20319;DHT22;10317;47.254;11.314;2023-06-14T14:58:28;27.60;37.00
20319;DHT22;10317;47.254;11.314;2023-06-14T15:00:54;27.60;37.90
20319;DHT22;10317;47.254;11.314;2023-06-14T15:03:20;27.70;37.70
20319;DHT22;10317;47.254;11.314;2023-06-14T15:05:46;27.90;38.50
20319;DHT22;10317;47.254;11.314;2023-06-14T15:08:12;27.90;38.50
20319;DHT22;10317;47.254;11.314;2023-06-14T15:10:38;28.00;37.00
20319;DHT22;10317;47.254;11.314;2023-06-14T15:13:07;27.90;36.80
20319;DHT22;10317;47.254;11.314;2023-06-14T15:15:33;27.70;38.10
20319;DHT22;10317;47.254;11.314;2023-06-14T15:17:59;27.70;38.10
20319;DHT22;10317;47.254;11.314;2023-06-14T15:20:25;27.90;36.90
20319;DHT22;10317;47.254;11.314;2023-06-14T15:22:51;28.00;37.30
20319;DHT22;10317;47.254;11.314;2023-06-14T15:25:17;27.80;37.00
20319;DHT22;10317;47.254;11.314;2023-06-14T15:27:44;27.80;37.60